createdAt,value
2016-12-26T00:00:05.393Z,86.11
2016-12-26T00:00:27.148Z,86.10
2016-12-26T00:00:48.898Z,86.11
2016-12-26T00:01:10.649Z,86.08
2016-12-26T00:01:32.431Z,86.12
2016-12-26T00:01:55.273Z,86.14
2016-12-26T00:02:21.794Z,86.13
2016-12-26T00:02:48.387Z,86.12
2016-12-26T00:03:14.899Z,86.07
2016-12-26T00:03:41.408Z,86.12
2016-12-26T00:04:03.193Z,86.12
2016-12-26T00:04:24.944Z,86.10
2016-12-26T00:04:46.784Z,86.10
2016-12-26T00:05:13.309Z,86.15
2016-12-26T00:05:35.205Z,86.20
2016-12-26T00:06:53.635Z,86.16
2016-12-26T00:07:19.337Z,86.16
2016-12-26T00:07:43.075Z,86.17
2016-12-26T00:08:04.822Z,86.21
2016-12-26T00:08:26.576Z,86.26
2016-12-26T00:08:48.339Z,86.19
2016-12-26T00:09:10.445Z,86.15
2016-12-26T00:09:33.196Z,86.14
2016-12-26T00:09:55.935Z,86.13
2016-12-26T00:10:17.700Z,86.14
2016-12-26T00:10:42.075Z,86.12
2016-12-26T00:11:03.823Z,86.08
2016-12-26T00:11:25.570Z,86.08
2016-12-26T00:11:47.311Z,86.10
2016-12-26T00:12:09.062Z,86.13
2016-12-26T00:12:30.809Z,86.13
2016-12-26T00:12:52.555Z,86.14
2016-12-26T00:13:14.336Z,86.23
2016-12-26T00:13:38.983Z,86.21
2016-12-26T00:14:00.763Z,86.16
2016-12-26T00:14:49.469Z,86.17
2016-12-26T00:15:15.987Z,86.15
2016-12-26T00:15:38.064Z,86.14
2016-12-26T00:15:59.758Z,86.12
2016-12-26T00:16:27.287Z,86.14
2016-12-26T00:16:49.180Z,86.16
2016-12-26T00:17:15.688Z,86.23
2016-12-26T00:17:37.432Z,86.18
2016-12-26T00:17:59.318Z,86.18
2016-12-26T00:18:49.572Z,86.15
2016-12-26T00:19:11.328Z,86.18
2016-12-26T00:19:33.325Z,86.17
2016-12-26T00:19:55.067Z,86.19
2016-12-26T00:20:16.812Z,86.18
2016-12-26T00:20:39.557Z,86.14
2016-12-26T00:21:01.308Z,86.17
2016-12-26T00:21:23.063Z,86.14
2016-12-26T00:22:48.411Z,86.19
2016-12-26T00:23:10.227Z,86.24
2016-12-26T00:23:32.015Z,86.19
2016-12-26T00:23:53.752Z,86.20
2016-12-26T00:24:53.571Z,86.17
2016-12-26T00:25:23.067Z,86.21
2016-12-26T00:25:49.603Z,86.21
2016-12-26T00:26:16.135Z,86.24
2016-12-26T00:26:38.173Z,86.24
2016-12-26T00:27:01.560Z,86.24
2016-12-26T00:27:23.417Z,86.21
2016-12-26T00:27:45.151Z,86.22
2016-12-26T00:28:06.901Z,86.23
2016-12-26T00:28:29.648Z,86.26
2016-12-26T00:28:56.165Z,86.25
2016-12-26T00:29:18.906Z,86.22
2016-12-26T00:29:48.331Z,86.21
2016-12-26T00:30:10.076Z,86.27
2016-12-26T00:30:31.822Z,86.22
2016-12-26T00:30:55.650Z,86.22
2016-12-26T00:31:22.832Z,86.23
2016-12-26T00:31:45.091Z,86.22
2016-12-26T00:32:07.197Z,86.23
2016-12-26T00:32:29.230Z,86.19
2016-12-26T00:32:51.392Z,86.23
2016-12-26T00:33:14.412Z,86.25
2016-12-26T00:34:07.686Z,86.24
2016-12-26T00:34:29.420Z,86.28
2016-12-26T00:34:52.178Z,86.27
2016-12-26T00:35:13.949Z,86.23
2016-12-26T00:35:35.981Z,86.25
2016-12-26T00:35:57.666Z,86.26
2016-12-26T00:36:19.489Z,86.24
2016-12-26T00:36:46.996Z,86.28
2016-12-26T00:38:26.836Z,86.20
2016-12-26T00:38:49.603Z,86.23
2016-12-26T00:39:11.358Z,86.22
2016-12-26T00:39:33.221Z,86.18
2016-12-26T00:39:55.084Z,86.19
2016-12-26T00:40:17.036Z,86.19
2016-12-26T00:41:10.929Z,86.20
2016-12-26T00:41:33.024Z,86.15
2016-12-26T00:41:56.768Z,86.20
2016-12-26T00:42:24.514Z,86.20
2016-12-26T00:42:46.683Z,86.19
2016-12-26T00:43:08.466Z,86.20
2016-12-26T00:43:30.429Z,86.25
2016-12-26T00:43:52.346Z,86.24
2016-12-26T00:44:14.088Z,86.21
2016-12-26T00:44:35.825Z,86.19
2016-12-26T00:44:57.560Z,86.13
2016-12-26T00:45:20.342Z,86.23
2016-12-26T00:45:43.084Z,86.21
2016-12-26T00:46:04.828Z,86.22
2016-12-26T00:46:31.364Z,86.17
2016-12-26T00:46:54.102Z,86.22
2016-12-26T00:47:15.894Z,86.20
2016-12-26T00:47:37.636Z,86.21
2016-12-26T00:47:59.401Z,86.16
2016-12-26T00:48:22.180Z,86.14
2016-12-26T00:48:43.986Z,86.18
2016-12-26T00:49:05.726Z,86.16
2016-12-26T00:49:27.501Z,86.19
2016-12-26T00:49:50.262Z,86.18
2016-12-26T00:50:12.995Z,86.16
2016-12-26T00:50:34.762Z,86.15
2016-12-26T00:50:56.658Z,86.13
2016-12-26T00:51:18.402Z,86.10
2016-12-26T00:51:40.189Z,86.14
2016-12-26T00:52:02.081Z,86.13
2016-12-26T00:52:56.102Z,86.12
2016-12-26T00:53:17.865Z,86.11
2016-12-26T00:53:42.503Z,86.14
2016-12-26T00:54:04.234Z,86.14
2016-12-26T00:54:26.981Z,86.12
2016-12-26T00:54:50.736Z,86.09
2016-12-26T00:55:17.244Z,86.05
2016-12-26T00:55:40.010Z,86.07
2016-12-26T00:56:01.760Z,86.15
2016-12-26T00:56:23.490Z,86.16
2016-12-26T00:56:45.265Z,86.12
2016-12-26T00:57:07.035Z,86.06
2016-12-26T00:57:58.463Z,86.09
2016-12-26T00:58:25.962Z,86.02
2016-12-26T00:59:15.252Z,85.97
2016-12-26T00:59:37.000Z,85.95
2016-12-26T01:00:03.568Z,86.00
2016-12-26T01:00:34.837Z,85.98
2016-12-26T01:00:56.960Z,86.10
2016-12-26T01:01:18.874Z,86.09
2016-12-26T01:01:40.865Z,86.07
2016-12-26T01:02:03.642Z,86.12
2016-12-26T01:02:30.150Z,86.03
2016-12-26T01:02:51.908Z,86.05
2016-12-26T01:03:13.717Z,86.01
2016-12-26T01:03:35.483Z,86.04
2016-12-26T01:03:57.397Z,86.00
2016-12-26T01:04:19.724Z,85.96
2016-12-26T01:04:46.402Z,85.90
2016-12-26T01:05:08.289Z,85.87
2016-12-26T01:05:30.102Z,85.83
2016-12-26T01:05:51.851Z,85.88
2016-12-26T01:06:16.272Z,85.90
2016-12-26T01:06:38.015Z,85.90
2016-12-26T01:06:59.761Z,85.88
2016-12-26T01:07:21.512Z,85.91
2016-12-26T01:08:10.779Z,85.95
2016-12-26T01:08:37.291Z,85.92
2016-12-26T01:09:00.409Z,85.92
2016-12-26T01:09:24.113Z,85.88
2016-12-26T01:09:45.851Z,85.88
2016-12-26T01:10:07.598Z,85.92
2016-12-26T01:10:29.464Z,85.93
2016-12-26T01:10:51.205Z,85.94
2016-12-26T01:11:12.940Z,85.97
2016-12-26T01:11:34.786Z,85.99
2016-12-26T01:11:56.646Z,86.00
2016-12-26T01:12:19.398Z,85.93
2016-12-26T01:13:08.677Z,85.94
2016-12-26T01:13:35.215Z,86.00
2016-12-26T01:13:56.946Z,85.94
2016-12-26T01:14:18.695Z,85.93
2016-12-26T01:14:40.447Z,85.92
2016-12-26T01:15:02.202Z,85.94
2016-12-26T01:15:28.710Z,85.95
2016-12-26T01:15:55.223Z,86.03
2016-12-26T01:16:21.736Z,86.00
2016-12-26T01:16:43.496Z,86.05
2016-12-26T01:17:05.359Z,85.95
2016-12-26T01:17:27.598Z,85.95
2016-12-26T01:17:50.374Z,85.88
2016-12-26T01:18:17.878Z,85.87
2016-12-26T01:18:44.383Z,85.89
2016-12-26T01:19:10.890Z,85.89
2016-12-26T01:19:37.405Z,85.86
2016-12-26T01:19:59.242Z,85.91
2016-12-26T01:20:20.993Z,86.02
2016-12-26T01:20:42.743Z,86.06
2016-12-26T01:21:09.250Z,86.18
2016-12-26T01:21:31.993Z,86.20
2016-12-26T01:21:58.517Z,86.26
2016-12-26T01:22:20.254Z,86.08
2016-12-26T01:22:41.988Z,86.00
2016-12-26T01:23:03.817Z,86.13
2016-12-26T01:23:25.597Z,86.13
2016-12-26T01:23:52.113Z,86.11
2016-12-26T01:24:14.105Z,86.17
2016-12-26T01:24:40.609Z,86.29
2016-12-26T01:25:02.382Z,86.24
2016-12-26T01:26:17.130Z,86.24
2016-12-26T01:26:38.942Z,86.25
2016-12-26T01:27:05.673Z,86.26
2016-12-26T01:27:27.633Z,86.27
2016-12-26T01:27:49.528Z,86.22
2016-12-26T01:28:11.299Z,86.24
2016-12-26T01:28:33.232Z,86.21
2016-12-26T01:28:55.003Z,86.13
2016-12-26T01:29:16.746Z,86.17
2016-12-26T01:29:38.494Z,86.11
2016-12-26T01:30:31.559Z,86.22
2016-12-26T01:30:58.050Z,86.18
2016-12-26T01:31:19.803Z,86.29
2016-12-26T01:31:42.555Z,86.29
2016-12-26T01:32:04.302Z,86.32
2016-12-26T01:32:26.116Z,86.31
2016-12-26T01:32:48.861Z,86.41
2016-12-26T01:33:10.648Z,86.50
2016-12-26T01:33:32.412Z,86.43
2016-12-26T01:33:54.158Z,86.41
2016-12-26T01:34:20.686Z,86.45
2016-12-26T01:34:42.433Z,86.47
2016-12-26T01:35:04.179Z,86.43
2016-12-26T01:35:26.943Z,86.37
2016-12-26T01:35:49.688Z,86.34
2016-12-26T01:36:39.434Z,86.35
2016-12-26T01:37:04.075Z,86.37
2016-12-26T01:37:25.818Z,86.37
2016-12-26T01:37:48.558Z,86.39
2016-12-26T01:38:10.414Z,86.52
2016-12-26T01:38:32.169Z,86.60
2016-12-26T01:38:54.982Z,86.62
2016-12-26T01:39:18.819Z,86.59
2016-12-26T01:39:41.584Z,86.60
2016-12-26T01:40:09.090Z,86.62
2016-12-26T01:40:36.598Z,86.62
2016-12-26T01:40:59.331Z,86.64
2016-12-26T01:41:26.936Z,86.66
2016-12-26T01:41:48.678Z,86.69
2016-12-26T01:42:10.465Z,86.71
2016-12-26T01:42:32.235Z,86.68
2016-12-26T01:42:58.742Z,86.73
2016-12-26T01:43:20.487Z,86.70
2016-12-26T01:43:42.276Z,86.63
2016-12-26T01:44:04.038Z,86.62
2016-12-26T01:44:25.782Z,86.69
2016-12-26T01:44:48.550Z,86.69
2016-12-26T01:45:10.289Z,86.82
2016-12-26T01:45:32.052Z,86.76
2016-12-26T01:45:53.783Z,86.75
2016-12-26T01:46:16.550Z,86.79
2016-12-26T01:46:38.559Z,86.83
2016-12-26T01:47:01.594Z,86.95
2016-12-26T01:47:23.367Z,87.00
2016-12-26T01:47:45.113Z,86.97
2016-12-26T01:48:06.865Z,86.98
2016-12-26T01:48:28.646Z,87.02
2016-12-26T01:48:51.381Z,87.08
2016-12-26T01:49:22.656Z,87.07
2016-12-26T01:49:49.192Z,87.17
2016-12-26T01:50:10.939Z,87.09
2016-12-26T01:50:32.720Z,87.10
2016-12-26T01:51:01.221Z,87.15
2016-12-26T01:51:23.206Z,87.24
2016-12-26T01:52:12.045Z,87.22
2016-12-26T01:52:34.411Z,87.19
2016-12-26T01:52:56.382Z,87.17
2016-12-26T01:53:18.306Z,87.17
2016-12-26T01:53:40.148Z,87.13
2016-12-26T01:54:02.078Z,87.08
2016-12-26T01:54:23.900Z,87.05
2016-12-26T01:54:45.785Z,87.05
2016-12-26T01:55:12.294Z,87.11
2016-12-26T01:55:34.042Z,87.21
2016-12-26T01:55:55.847Z,87.30
2016-12-26T01:56:17.594Z,87.33
2016-12-26T01:56:39.340Z,87.31
2016-12-26T01:57:06.853Z,87.37
2016-12-26T01:57:28.609Z,87.37
2016-12-26T01:58:31.161Z,87.38
2016-12-26T01:58:57.668Z,87.65
2016-12-26T01:59:24.193Z,87.67
2016-12-26T01:59:50.698Z,87.57
2016-12-26T02:00:49.012Z,87.55
2016-12-26T02:01:11.748Z,87.55
2016-12-26T02:01:33.505Z,87.62
2016-12-26T02:01:55.290Z,87.52
2016-12-26T02:02:18.027Z,87.53
2016-12-26T02:03:11.109Z,87.52
2016-12-26T02:04:00.604Z,87.46
2016-12-26T02:04:22.594Z,87.42
2016-12-26T02:04:49.216Z,87.48
2016-12-26T02:05:12.035Z,87.47
2016-12-26T02:05:33.778Z,87.38
2016-12-26T02:06:02.296Z,87.36
2016-12-26T02:06:24.049Z,87.26
2016-12-26T02:07:13.287Z,87.29
2016-12-26T02:07:35.025Z,87.26
2016-12-26T02:08:02.552Z,87.39
2016-12-26T02:08:26.302Z,87.43
2016-12-26T02:09:28.847Z,87.46
2016-12-26T02:09:50.625Z,87.55
2016-12-26T02:10:12.451Z,87.52
2016-12-26T02:10:34.316Z,87.51
2016-12-26T02:10:56.186Z,87.53
2016-12-26T02:11:18.007Z,87.60
2016-12-26T02:11:42.708Z,87.78
2016-12-26T02:12:04.451Z,87.77
2016-12-26T02:12:32.033Z,87.74
2016-12-26T02:12:53.785Z,87.77
2016-12-26T02:13:15.778Z,87.77
2016-12-26T02:13:38.485Z,87.78
2016-12-26T02:14:00.236Z,88.02
2016-12-26T02:14:22.987Z,88.09
2016-12-26T02:14:49.508Z,88.14
2016-12-26T02:15:11.257Z,88.09
2016-12-26T02:15:33.003Z,87.99
2016-12-26T02:15:54.738Z,88.01
2016-12-26T02:16:16.539Z,87.98
2016-12-26T02:16:38.585Z,87.97
2016-12-26T02:17:05.117Z,88.09
2016-12-26T02:17:26.948Z,88.09
2016-12-26T02:17:48.687Z,88.01
2016-12-26T02:18:10.434Z,87.97
2016-12-26T02:18:32.185Z,88.03
2016-12-26T02:18:54.075Z,88.03
2016-12-26T02:19:15.745Z,88.05
2016-12-26T02:19:37.516Z,88.05
2016-12-26T02:19:59.265Z,88.00
2016-12-26T02:20:22.073Z,88.05
2016-12-26T02:20:43.846Z,88.09
2016-12-26T02:21:05.596Z,88.13
2016-12-26T02:21:27.337Z,88.15
2016-12-26T02:21:49.090Z,88.09
2016-12-26T02:22:11.346Z,88.11
2016-12-26T02:22:34.059Z,88.19
2016-12-26T02:23:00.944Z,88.19
2016-12-26T02:23:23.176Z,88.15
2016-12-26T02:23:54.509Z,88.31
2016-12-26T02:24:16.256Z,88.26
2016-12-26T02:24:38.011Z,88.14
2016-12-26T02:25:00.749Z,88.21
2016-12-26T02:25:22.482Z,88.16
2016-12-26T02:25:44.362Z,88.08
2016-12-26T02:26:06.366Z,88.14
2016-12-26T02:26:28.103Z,88.10
2016-12-26T02:26:49.844Z,88.06
2016-12-26T02:27:21.122Z,88.06
2016-12-26T02:27:42.882Z,88.05
2016-12-26T02:28:04.627Z,88.05
2016-12-26T02:28:57.647Z,88.03
2016-12-26T02:29:20.403Z,88.02
2016-12-26T02:29:42.274Z,88.10
2016-12-26T02:30:04.018Z,88.17
2016-12-26T02:30:25.751Z,88.24
2016-12-26T02:30:47.503Z,88.18
2016-12-26T02:31:35.766Z,88.25
2016-12-26T02:31:57.545Z,88.21
2016-12-26T02:32:22.363Z,88.22
2016-12-26T02:32:45.707Z,88.13
2016-12-26T02:33:07.436Z,88.16
2016-12-26T02:33:29.167Z,88.24
2016-12-26T02:33:50.912Z,88.24
2016-12-26T02:34:12.676Z,88.17
2016-12-26T02:34:34.444Z,88.12
2016-12-26T02:34:56.179Z,88.25
2016-12-26T02:35:17.913Z,88.22
2016-12-26T02:35:40.105Z,88.18
2016-12-26T02:36:02.508Z,88.16
2016-12-26T02:36:24.634Z,88.14
2016-12-26T02:36:46.608Z,88.10
2016-12-26T02:37:08.614Z,88.10
2016-12-26T02:37:30.357Z,88.14
2016-12-26T02:37:56.858Z,88.08
2016-12-26T02:38:18.610Z,88.09
2016-12-26T02:38:41.349Z,88.15
2016-12-26T02:39:03.095Z,88.18
2016-12-26T02:39:24.842Z,88.21
2016-12-26T02:39:46.581Z,88.27
2016-12-26T02:40:08.322Z,88.26
2016-12-26T02:40:30.067Z,88.25
2016-12-26T02:40:51.821Z,88.29
2016-12-26T02:41:13.686Z,88.24
2016-12-26T02:41:35.434Z,88.18
2016-12-26T02:41:57.204Z,88.17
2016-12-26T02:42:18.955Z,88.31
2016-12-26T02:42:40.707Z,88.27
2016-12-26T02:43:02.526Z,88.23
2016-12-26T02:43:24.411Z,88.24
2016-12-26T02:43:46.301Z,88.27
2016-12-26T02:44:08.045Z,88.17
2016-12-26T02:44:29.808Z,88.16
2016-12-26T02:44:51.567Z,88.10
2016-12-26T02:45:13.333Z,88.09
2016-12-26T02:45:35.081Z,88.13
2016-12-26T02:45:56.889Z,88.07
2016-12-26T02:46:23.400Z,88.10
2016-12-26T02:47:46.921Z,88.03
2016-12-26T02:48:35.200Z,88.00
2016-12-26T02:48:57.099Z,88.01
2016-12-26T02:49:19.147Z,88.00
2016-12-26T02:49:41.098Z,87.98
2016-12-26T02:50:03.143Z,87.98
2016-12-26T02:50:26.246Z,88.00
2016-12-26T02:50:57.551Z,88.01
2016-12-26T02:51:19.307Z,88.01
2016-12-26T02:51:41.059Z,88.01
2016-12-26T02:52:03.810Z,88.01
2016-12-26T02:52:30.305Z,88.05
2016-12-26T02:52:52.056Z,88.01
2016-12-26T02:53:14.808Z,87.96
2016-12-26T02:53:36.673Z,88.01
2016-12-26T02:53:58.555Z,88.02
2016-12-26T02:54:20.777Z,88.00
2016-12-26T02:54:42.547Z,88.03
2016-12-26T02:55:04.281Z,88.03
2016-12-26T02:55:26.018Z,88.01
2016-12-26T02:55:47.810Z,87.99
2016-12-26T02:56:09.560Z,88.00
2016-12-26T02:56:31.315Z,88.00
2016-12-26T02:56:54.086Z,88.04
2016-12-26T02:57:15.851Z,88.04
2016-12-26T02:57:37.625Z,88.05
2016-12-26T02:57:59.370Z,88.03
2016-12-26T02:58:21.148Z,88.06
2016-12-26T02:58:42.941Z,88.02
2016-12-26T02:59:04.718Z,88.08
2016-12-26T02:59:31.240Z,88.08
2016-12-26T02:59:53.978Z,88.10
2016-12-26T03:00:42.248Z,88.16
2016-12-26T03:01:08.765Z,88.00
2016-12-26T03:02:02.780Z,87.98
2016-12-26T03:02:25.562Z,87.94
2016-12-26T03:03:20.561Z,87.83
2016-12-26T03:03:42.317Z,87.84
2016-12-26T03:04:31.657Z,87.74
2016-12-26T03:04:53.418Z,87.81
2016-12-26T03:05:15.445Z,87.80
2016-12-26T03:05:37.584Z,87.84
2016-12-26T03:05:59.507Z,87.86
2016-12-26T03:06:26.470Z,87.91
2016-12-26T03:06:52.975Z,87.87
2016-12-26T03:07:14.751Z,87.84
2016-12-26T03:07:36.493Z,87.89
2016-12-26T03:07:58.246Z,87.89
2016-12-26T03:08:20.168Z,87.89
2016-12-26T03:09:13.450Z,87.69
2016-12-26T03:10:11.772Z,87.62
2016-12-26T03:10:38.279Z,87.56
2016-12-26T03:11:00.091Z,87.64
2016-12-26T03:11:21.831Z,87.76
2016-12-26T03:11:43.566Z,87.64
2016-12-26T03:12:10.095Z,87.61
2016-12-26T03:12:36.622Z,87.74
2016-12-26T03:12:58.503Z,87.68
2016-12-26T03:13:25.211Z,87.74
2016-12-26T03:13:49.872Z,87.75
2016-12-26T03:14:15.196Z,87.71
2016-12-26T03:14:36.966Z,87.77
2016-12-26T03:15:03.467Z,87.75
2016-12-26T03:15:25.244Z,87.73
2016-12-26T03:15:48.033Z,87.73
2016-12-26T03:16:09.776Z,87.70
2016-12-26T03:16:31.550Z,87.71
2016-12-26T03:16:53.395Z,87.76
2016-12-26T03:17:20.908Z,87.74
2016-12-26T03:17:43.647Z,87.74
2016-12-26T03:18:05.406Z,87.77
2016-12-26T03:18:27.172Z,87.78
2016-12-26T03:18:48.938Z,87.81
2016-12-26T03:19:10.685Z,87.76
2016-12-26T03:19:37.207Z,87.78
2016-12-26T03:20:03.727Z,87.82
2016-12-26T03:20:25.463Z,87.72
2016-12-26T03:20:49.921Z,87.79
2016-12-26T03:21:11.689Z,87.76
2016-12-26T03:21:33.760Z,87.61
2016-12-26T03:21:55.642Z,87.58
2016-12-26T03:22:17.677Z,87.55
2016-12-26T03:22:39.440Z,87.53
2016-12-26T03:23:05.951Z,87.56
2016-12-26T03:23:27.752Z,87.57
2016-12-26T03:23:49.638Z,87.61
2016-12-26T03:24:11.423Z,87.62
2016-12-26T03:24:33.159Z,87.66
2016-12-26T03:24:54.906Z,87.66
2016-12-26T03:25:16.634Z,87.67
2016-12-26T03:25:38.394Z,87.79
2016-12-26T03:26:00.134Z,87.85
2016-12-26T03:26:21.895Z,87.83
2016-12-26T03:26:43.647Z,87.75
2016-12-26T03:27:10.273Z,87.72
2016-12-26T03:27:32.028Z,87.78
2016-12-26T03:27:54.782Z,87.85
2016-12-26T03:28:16.532Z,87.80
2016-12-26T03:28:43.045Z,88.01
2016-12-26T03:29:04.783Z,88.05
2016-12-26T03:29:26.534Z,88.01
2016-12-26T03:30:14.821Z,88.27
2016-12-26T03:30:36.572Z,88.28
2016-12-26T03:30:58.314Z,88.31
2016-12-26T03:31:20.066Z,88.33
2016-12-26T03:31:41.849Z,88.30
2016-12-26T03:32:03.596Z,88.24
2016-12-26T03:32:25.344Z,88.19
2016-12-26T03:32:47.094Z,88.10
2016-12-26T03:33:08.834Z,88.07
2016-12-26T03:33:30.586Z,88.07
2016-12-26T03:33:52.327Z,88.09
2016-12-26T03:34:14.092Z,88.10
2016-12-26T03:34:35.836Z,88.18
2016-12-26T03:34:57.591Z,88.23
2016-12-26T03:35:45.875Z,88.52
2016-12-26T03:36:34.340Z,88.42
2016-12-26T03:36:56.098Z,88.45
2016-12-26T03:37:18.847Z,88.51
2016-12-26T03:37:45.352Z,88.50
2016-12-26T03:38:08.109Z,88.42
2016-12-26T03:38:29.850Z,88.51
2016-12-26T03:38:51.792Z,88.59
2016-12-26T03:39:13.548Z,88.58
2016-12-26T03:39:35.293Z,88.56
2016-12-26T03:40:01.821Z,88.49
2016-12-26T03:40:23.565Z,88.37
2016-12-26T03:40:45.332Z,88.35
2016-12-26T03:41:07.063Z,88.47
2016-12-26T03:41:28.831Z,88.59
2016-12-26T03:41:50.584Z,88.65
2016-12-26T03:42:12.339Z,88.62
2016-12-26T03:43:11.192Z,88.50
2016-12-26T03:43:37.714Z,88.58
2016-12-26T03:43:59.698Z,88.49
2016-12-26T03:44:50.058Z,88.38
2016-12-26T03:45:11.949Z,88.42
2016-12-26T03:45:33.831Z,88.46
2016-12-26T03:45:55.674Z,88.39
2016-12-26T03:46:17.429Z,88.38
2016-12-26T03:46:39.168Z,88.41
2016-12-26T03:47:00.927Z,88.36
2016-12-26T03:47:22.669Z,88.52
2016-12-26T03:47:44.399Z,88.55
2016-12-26T03:48:06.152Z,88.58
2016-12-26T03:48:27.929Z,88.58
2016-12-26T03:48:55.437Z,88.60
2016-12-26T03:49:21.937Z,88.52
2016-12-26T03:49:43.689Z,88.54
2016-12-26T03:50:05.461Z,88.62
2016-12-26T03:50:27.231Z,88.56
2016-12-26T03:50:48.992Z,88.57
2016-12-26T03:51:16.499Z,88.73
2016-12-26T03:51:38.233Z,88.70
2016-12-26T03:52:03.396Z,88.70
2016-12-26T03:52:25.142Z,88.63
2016-12-26T03:52:47.879Z,88.70
2016-12-26T03:53:09.615Z,88.62
2016-12-26T03:53:31.346Z,88.56
2016-12-26T03:53:54.178Z,88.50
2016-12-26T03:54:20.665Z,88.46
2016-12-26T03:54:42.425Z,88.51
2016-12-26T03:55:05.337Z,88.53
2016-12-26T03:55:27.541Z,88.71
2016-12-26T03:55:49.547Z,88.84
2016-12-26T03:56:11.682Z,88.79
2016-12-26T03:56:34.480Z,88.71
2016-12-26T03:56:57.234Z,88.82
2016-12-26T03:57:19.981Z,88.89
2016-12-26T03:57:41.789Z,88.80
2016-12-26T03:58:03.538Z,88.78
2016-12-26T03:58:25.282Z,88.67
2016-12-26T03:58:51.790Z,88.76
2016-12-26T03:59:13.538Z,88.97
2016-12-26T03:59:40.058Z,89.00
2016-12-26T04:00:02.821Z,88.97
2016-12-26T04:00:29.337Z,89.06
2016-12-26T04:01:27.657Z,89.21
2016-12-26T04:01:49.399Z,89.13
2016-12-26T04:02:11.159Z,89.12
2016-12-26T04:02:34.032Z,89.10
2016-12-26T04:02:55.780Z,89.13
2016-12-26T04:03:17.521Z,89.04
2016-12-26T04:03:39.276Z,89.02
2016-12-26T04:04:01.075Z,89.02
2016-12-26T04:04:22.993Z,88.98
2016-12-26T04:04:44.799Z,89.01
2016-12-26T04:05:06.582Z,88.96
2016-12-26T04:05:31.177Z,89.05
2016-12-26T04:05:52.975Z,89.03
2016-12-26T04:06:14.717Z,89.08
2016-12-26T04:06:36.469Z,89.23
2016-12-26T04:07:02.976Z,89.19
2016-12-26T04:07:24.773Z,89.13
2016-12-26T04:07:46.528Z,89.02
2016-12-26T04:08:08.262Z,89.05
2016-12-26T04:08:30.001Z,89.01
2016-12-26T04:08:51.843Z,89.00
2016-12-26T04:09:13.574Z,88.93
2016-12-26T04:09:37.830Z,88.96
2016-12-26T04:10:09.115Z,88.77
2016-12-26T04:10:30.890Z,88.88
2016-12-26T04:10:52.727Z,89.02
2016-12-26T04:11:14.523Z,89.15
2016-12-26T04:11:36.404Z,89.13
2016-12-26T04:11:58.152Z,89.13
2016-12-26T04:12:20.898Z,89.16
2016-12-26T04:12:42.633Z,89.08
2016-12-26T04:13:04.389Z,89.03
2016-12-26T04:13:26.132Z,89.20
2016-12-26T04:13:47.882Z,89.17
2016-12-26T04:14:09.643Z,89.11
2016-12-26T04:14:31.390Z,89.10
2016-12-26T04:14:53.139Z,89.08
2016-12-26T04:15:14.884Z,89.06
2016-12-26T04:15:36.637Z,89.11
2016-12-26T04:15:58.529Z,89.10
2016-12-26T04:16:20.444Z,89.12
2016-12-26T04:16:42.350Z,89.21
2016-12-26T04:17:04.092Z,89.25
2016-12-26T04:17:25.948Z,89.28
2016-12-26T04:17:47.692Z,89.25
2016-12-26T04:18:09.432Z,89.21
2016-12-26T04:18:31.182Z,89.02
2016-12-26T04:18:54.924Z,89.04
2016-12-26T04:19:43.159Z,89.12
2016-12-26T04:20:04.960Z,89.11
2016-12-26T04:20:31.909Z,89.11
2016-12-26T04:20:58.412Z,89.24
2016-12-26T04:21:20.204Z,89.30
2016-12-26T04:21:41.960Z,89.25
2016-12-26T04:22:03.704Z,89.30
2016-12-26T04:22:25.435Z,89.29
2016-12-26T04:22:47.205Z,89.26
2016-12-26T04:23:08.975Z,89.30
2016-12-26T04:23:30.874Z,89.43
2016-12-26T04:23:55.429Z,89.34
2016-12-26T04:24:22.019Z,89.33
2016-12-26T04:24:43.824Z,89.44
2016-12-26T04:25:06.562Z,89.42
2016-12-26T04:25:28.311Z,89.33
2016-12-26T04:25:50.103Z,89.49
2016-12-26T04:26:11.861Z,89.54
2016-12-26T04:26:33.643Z,89.54
2016-12-26T04:26:55.385Z,89.59
2016-12-26T04:27:17.135Z,89.51
2016-12-26T04:27:38.935Z,89.39
2016-12-26T04:28:00.854Z,89.39
2016-12-26T04:28:22.629Z,89.43
2016-12-26T04:28:44.368Z,89.46
2016-12-26T04:29:06.119Z,89.46
2016-12-26T04:29:27.856Z,89.46
2016-12-26T04:29:49.594Z,89.43
2016-12-26T04:30:11.332Z,89.43
2016-12-26T04:30:33.071Z,89.41
2016-12-26T04:30:54.901Z,89.36
2016-12-26T04:31:16.767Z,89.28
2016-12-26T04:31:38.520Z,89.27
2016-12-26T04:32:05.046Z,89.41
2016-12-26T04:32:32.539Z,89.45
2016-12-26T04:32:59.048Z,89.61
2016-12-26T04:33:20.815Z,89.73
2016-12-26T04:34:24.975Z,89.58
2016-12-26T04:34:51.484Z,89.72
2016-12-26T04:35:13.257Z,89.68
2016-12-26T04:35:39.769Z,89.70
2016-12-26T04:36:29.834Z,89.62
2016-12-26T04:36:51.645Z,89.57
2016-12-26T04:37:13.385Z,89.44
2016-12-26T04:37:35.300Z,89.51
2016-12-26T04:37:57.132Z,89.52
2016-12-26T04:38:18.883Z,89.39
2016-12-26T04:38:40.619Z,89.38
2016-12-26T04:39:02.358Z,89.40
2016-12-26T04:39:24.115Z,89.34
2016-12-26T04:39:45.869Z,89.36
2016-12-26T04:40:17.149Z,89.38
2016-12-26T04:40:41.491Z,89.42
2016-12-26T04:41:03.309Z,89.52
2016-12-26T04:41:27.711Z,89.60
2016-12-26T04:41:49.551Z,89.61
2016-12-26T04:42:11.472Z,89.52
2016-12-26T04:42:34.211Z,89.58
2016-12-26T04:42:56.952Z,89.48
2016-12-26T04:43:24.472Z,89.58
2016-12-26T04:43:50.976Z,89.70
2016-12-26T04:44:12.715Z,89.64
2016-12-26T04:44:39.212Z,89.63
2016-12-26T04:45:00.950Z,89.53
2016-12-26T04:45:22.710Z,89.53
2016-12-26T04:45:44.526Z,89.55
2016-12-26T04:46:06.288Z,89.49
2016-12-26T04:46:29.107Z,89.39
2016-12-26T04:46:51.044Z,89.36
2016-12-26T04:47:12.975Z,89.30
2016-12-26T04:47:34.726Z,89.27
2016-12-26T04:47:56.462Z,89.29
2016-12-26T04:48:18.247Z,89.37
2016-12-26T04:48:40.040Z,89.42
2016-12-26T04:49:01.782Z,89.41
2016-12-26T04:49:23.580Z,89.39
2016-12-26T04:49:45.319Z,89.35
2016-12-26T04:50:07.052Z,89.25
2016-12-26T04:50:28.816Z,89.29
2016-12-26T04:50:51.557Z,89.42
2016-12-26T04:51:14.298Z,89.53
2016-12-26T04:51:50.337Z,89.49
2016-12-26T04:52:12.085Z,89.47
2016-12-26T04:52:34.842Z,89.46
2016-12-26T04:53:23.100Z,89.59
2016-12-26T04:54:11.498Z,89.38
2016-12-26T04:54:35.258Z,89.44
2016-12-26T04:54:57.994Z,89.37
2016-12-26T04:55:24.497Z,89.25
2016-12-26T04:56:17.508Z,89.27
2016-12-26T04:56:40.247Z,89.39
2016-12-26T04:57:02.014Z,89.51
2016-12-26T04:57:23.767Z,89.61
2016-12-26T04:57:50.326Z,89.68
2016-12-26T04:58:12.077Z,89.62
2016-12-26T04:58:33.952Z,89.53
2016-12-26T04:58:55.722Z,89.53
2016-12-26T04:59:17.479Z,89.42
2016-12-26T04:59:39.217Z,89.37
2016-12-26T05:00:00.956Z,89.36
2016-12-26T05:00:22.712Z,89.33
2016-12-26T05:00:44.479Z,89.41
2016-12-26T05:01:10.980Z,89.50
2016-12-26T05:02:00.235Z,89.46
2016-12-26T05:02:22.082Z,89.42
2016-12-26T05:02:53.363Z,89.61
2016-12-26T05:03:15.295Z,89.53
2016-12-26T05:03:37.222Z,89.63
2016-12-26T05:03:59.309Z,89.66
2016-12-26T05:04:21.196Z,89.66
2016-12-26T05:04:44.221Z,89.56
2016-12-26T05:05:06.020Z,89.47
2016-12-26T05:05:30.808Z,89.40
2016-12-26T05:05:59.976Z,89.32
2016-12-26T05:06:23.323Z,89.29
2016-12-26T05:06:45.587Z,89.27
2016-12-26T05:07:08.018Z,89.32
2016-12-26T05:07:29.810Z,89.44
2016-12-26T05:07:51.982Z,89.55
2016-12-26T05:08:45.576Z,89.53
2016-12-26T05:09:08.117Z,89.60
2016-12-26T05:09:30.959Z,89.68
2016-12-26T05:09:52.886Z,89.54
2016-12-26T05:10:14.910Z,89.43
2016-12-26T05:10:41.436Z,89.51
2016-12-26T05:11:03.182Z,89.52
2016-12-26T05:11:57.264Z,89.52
2016-12-26T05:12:19.003Z,89.51
2016-12-26T05:12:40.771Z,89.44
2016-12-26T05:13:02.564Z,89.36
2016-12-26T05:13:24.341Z,89.44
2016-12-26T05:13:46.078Z,89.50
2016-12-26T05:14:07.852Z,89.59
2016-12-26T05:14:29.621Z,89.52
2016-12-26T05:14:56.149Z,89.57
2016-12-26T05:15:21.555Z,89.50
2016-12-26T05:15:43.309Z,89.35
2016-12-26T05:16:05.072Z,89.43
2016-12-26T05:16:26.811Z,89.40
2016-12-26T05:16:48.564Z,89.43
2016-12-26T05:17:10.313Z,89.38
2016-12-26T05:17:33.073Z,89.27
2016-12-26T05:17:54.816Z,89.23
2016-12-26T05:18:16.591Z,89.30
2016-12-26T05:18:38.348Z,89.29
2016-12-26T05:19:00.115Z,89.26
2016-12-26T05:19:21.952Z,89.34
2016-12-26T05:19:43.746Z,89.30
2016-12-26T05:20:06.506Z,89.33
2016-12-26T05:20:30.256Z,89.35